Time;durP1;ratioP1;P1;durP2;ratioP2;P2;SDS_P1;SDS_P2;PMS_P1;PMS_P2;Temp;Humidity;BMP_temperature;BMP_pressure;BME280_temperature;BME280_humidity;BME280_pressure;Samples;Min_cycle;Max_cycle;Signal;HPM_P1;HPM_P2
2023/05/28 00:00:01;;;;;;;;;0.00;0.00;;;;;-146.67;28.17;74146.56;5062754;28;61849;-84
2023/05/28 00:02:26;;;;;;;;;0.00;0.00;;;;;-146.67;28.04;74142.56;5045159;28;62082;-84
2023/05/28 00:04:52;;;;;;;;;0.00;0.00;;;;;-146.67;28.36;74158.53;5043489;28;63635;-84
2023/05/28 00:07:17;;;;;;;;;0.00;0.00;;;;;-146.67;28.29;74154.53;5063043;28;61885;-84
2023/05/28 00:09:42;;;;;;;;;0.00;0.00;;;;;-146.67;27.96;74166.50;5062649;28;62306;-84
2023/05/28 00:12:08;;;;;;;;;0.00;0.00;;;;;-146.67;28.69;74174.50;5062770;28;61870;-84
2023/05/28 00:14:34;;;;;;;;;0.00;0.00;;;;;-146.67;28.51;74180.50;5061909;28;63045;-84
2023/05/28 00:17:00;;;;;;;;;0.00;0.00;;;;;-146.67;28.18;74200.44;5062331;28;61851;-84
2023/05/28 00:19:25;;;;;;;;;0.00;0.00;;;;;-146.67;28.77;74200.44;5044331;28;61772;-84
2023/05/28 00:21:51;;;;;;;;;0.00;0.00;;;;;-146.67;28.78;74214.44;5044686;28;61962;-84
2023/05/28 00:24:16;;;;;;;;;0.00;0.00;;;;;-146.67;29.02;74236.38;5061935;28;63450;-84
2023/05/28 00:26:42;;;;;;;;;0.00;0.00;;;;;-146.67;28.98;74258.34;5062122;28;61923;-84
2023/05/28 00:29:07;;;;;;;;;0.00;0.00;;;;;-146.67;29.10;74260.34;5044545;28;61759;-84
2023/05/28 00:31:32;;;;;;;;;0.00;0.00;;;;;-146.67;29.34;74268.31;5062753;28;61843;-84
2023/05/28 00:33:58;;;;;;;;;0.00;0.00;;;;;-146.67;28.95;74264.34;5042903;28;63664;-83
2023/05/28 00:36:23;;;;;;;;;0.00;0.00;;;;;-146.67;29.63;74264.34;5043980;28;61941;-84
2023/05/28 00:38:49;;;;;;;;;0.00;0.00;;;;;-146.67;29.18;74274.31;5062250;28;61950;-84
2023/05/28 00:41:22;;;;;;;;;0.00;0.00;;;;;-146.67;29.35;74278.31;5062602;28;61974;-84
2023/05/28 00:43:51;;;;;;;;;0.00;0.00;;;;;-146.67;28.98;74272.31;5061648;28;62328;-84
2023/05/28 00:46:21;;;;;;;;;0.00;0.00;;;;;-146.67;29.61;74276.31;5044277;28;61959;-84
2023/05/28 00:48:47;;;;;;;;;0.00;0.00;;;;;-146.67;29.55;74284.28;5061186;28;61956;-84
2023/05/28 00:51:14;;;;;;;;;0.00;0.00;;;;;-146.67;29.69;74278.31;5062729;28;62036;-84
2023/05/28 00:53:41;;;;;;;;;0.00;0.00;;;;;-146.67;29.47;74280.31;5061728;28;62126;-84
2023/05/28 00:56:09;;;;;;;;;0.00;0.00;;;;;-146.67;29.74;74284.28;5061891;28;62000;-84
2023/05/28 00:58:39;;;;;;;;;0.00;0.00;;;;;-146.67;29.49;74280.31;5062610;28;61908;-84
2023/05/28 01:01:08;;;;;;;;;0.00;0.00;;;;;-146.67;29.46;74282.31;5045873;28;62006;-84
2023/05/28 01:03:38;;;;;;;;;0.00;0.00;;;;;-146.67;30.00;74304.25;5041064;28;62134;-84
2023/05/28 01:06:06;;;;;;;;;0.00;0.00;;;;;-146.67;29.94;74302.25;5041843;28;61948;-84
2023/05/28 01:08:32;;;;;;;;;0.00;0.00;;;;;-146.67;30.00;74306.25;5049498;28;62002;-84
2023/05/28 01:10:58;;;;;;;;;0.00;0.00;;;;;-146.67;29.61;74316.25;5043639;28;62192;-84
2023/05/28 01:13:23;;;;;;;;;0.00;0.00;;;;;-146.67;30.23;74324.22;5043199;28;64761;-84
2023/05/28 01:15:49;;;;;;;;;0.00;0.00;;;;;-146.67;30.18;74316.25;5061997;28;61772;-84
2023/05/28 01:18:14;;;;;;;;;0.00;0.00;;;;;-146.67;30.23;74314.25;5061170;28;61962;-84
2023/05/28 01:20:40;;;;;;;;;0.00;0.00;;;;;-146.67;30.28;74330.22;5062019;28;62041;-84
2023/05/28 01:23:10;;;;;;;;;0.00;0.00;;;;;-146.67;30.26;74340.19;5060770;28;61944;-83
2023/05/28 01:25:38;;;;;;;;;0.00;0.00;;;;;-146.67;30.46;74344.19;5043661;28;61976;-84
2023/05/28 01:28:12;;;;;;;;;0.00;0.00;;;;;-146.67;30.93;74372.13;5061688;28;61792;-84
2023/05/28 01:30:37;;;;;;;;;0.00;0.00;;;;;-146.67;30.96;74360.16;5044046;28;62168;-84
2023/05/28 01:33:03;;;;;;;;;0.00;0.00;;;;;-146.67;30.91;74358.16;5060513;28;61927;-83
2023/05/28 01:35:29;;;;;;;;;0.00;0.00;;;;;-146.67;30.73;74362.16;5061884;28;61950;-84
2023/05/28 01:37:57;;;;;;;;;0.00;0.00;;;;;-146.67;31.21;74382.13;5061397;28;61784;-81
2023/05/28 01:40:24;;;;;;;;;0.00;0.00;;;;;-146.67;31.14;74390.09;5061635;28;62097;-83
2023/05/28 01:42:51;;;;;;;;;0.00;0.00;;;;;-146.67;31.38;74398.09;5043201;28;63933;-84
2023/05/28 01:45:17;;;;;;;;;0.00;0.00;;;;;-146.67;31.76;74398.09;5061371;28;62123;-84
2023/05/28 01:47:43;;;;;;;;;0.00;0.00;;;;;-146.67;31.28;74398.09;5062848;28;61839;-83
2023/05/28 01:50:09;;;;;;;;;0.00;0.00;;;;;-146.67;31.57;74384.13;5065077;28;62093;-84
2023/05/28 01:52:35;;;;;;;;;0.00;0.00;;;;;-146.67;31.34;74380.13;5064775;28;63243;-84
2023/05/28 01:55:00;;;;;;;;;0.00;0.00;;;;;-146.67;31.58;74370.16;5064851;28;61670;-84
2023/05/28 01:57:25;;;;;;;;;0.00;0.00;;;;;-146.67;31.56;74378.13;5064847;28;62282;-84
2023/05/28 01:59:51;;;;;;;;;0.00;0.00;;;;;-146.67;31.59;74374.13;5042460;28;62136;-84
2023/05/28 02:02:16;;;;;;;;;0.00;0.00;;;;;-146.67;31.56;74366.16;5045641;28;63605;-84
2023/05/28 02:04:42;;;;;;;;;0.00;0.00;;;;;-146.67;31.73;74372.13;5064858;28;61875;-84
2023/05/28 02:07:07;;;;;;;;;0.00;0.00;;;;;-146.67;31.86;74376.13;5046608;28;62128;-84
2023/05/28 02:09:32;;;;;;;;;0.00;0.00;;;;;-146.67;31.82;74384.13;5046788;28;61952;-84
2023/05/28 02:12:02;;;;;;;;;0.00;0.00;;;;;-146.67;31.90;74398.09;5064073;28;62012;-84
2023/05/28 02:14:28;;;;;;;;;0.00;0.00;;;;;-146.67;32.02;74394.09;5046468;28;61895;-84
2023/05/28 02:16:53;;;;;;;;;0.00;0.00;;;;;-146.67;31.98;74402.09;5064063;28;61751;-84
2023/05/28 02:19:19;;;;;;;;;0.00;0.00;;;;;-146.67;32.03;74406.06;5064381;28;62188;-84
2023/05/28 02:21:45;;;;;;;;;0.00;0.00;;;;;-146.67;31.90;74424.03;5064113;28;61916;-84
2023/05/28 02:24:10;;;;;;;;;0.00;0.00;;;;;-146.67;32.53;74444.00;5045843;28;62139;-84
2023/05/28 02:26:36;;;;;;;;;0.00;0.00;;;;;-146.67;32.44;74459.97;5064377;28;62239;-84
2023/05/28 02:29:02;;;;;;;;;0.00;0.00;;;;;-146.67;32.25;74450.00;5064716;28;61888;-84
2023/05/28 02:31:27;;;;;;;;;0.00;0.00;;;;;-146.67;32.19;74444.00;5045089;28;63734;-84
2023/05/28 02:33:52;;;;;;;;;0.00;0.00;;;;;-146.67;31.79;74426.03;5064437;28;61788;-84
2023/05/28 02:36:18;;;;;;;;;0.00;0.00;;;;;-146.67;31.87;74438.03;5046103;28;62043;-84
2023/05/28 02:38:43;;;;;;;;;0.00;0.00;;;;;-146.67;31.75;74438.03;5064446;28;61907;-83
2023/05/28 02:41:09;;;;;;;;;0.00;0.00;;;;;-146.67;31.68;74442.00;5063302;28;62278;-84
2023/05/28 02:43:35;;;;;;;;;0.00;0.00;;;;;-146.67;31.75;74432.03;5064163;28;61941;-83
2023/05/28 02:46:00;;;;;;;;;0.00;0.00;;;;;-146.67;31.97;74428.03;5046175;28;61825;-84
2023/05/28 02:48:26;;;;;;;;;0.00;0.00;;;;;-146.67;31.96;74412.06;5063499;28;61959;-84
2023/05/28 02:50:51;;;;;;;;;0.00;0.00;;;;;-146.67;32.07;74398.09;5045639;28;63728;-84
2023/05/28 02:53:20;;;;;;;;;0.00;0.00;;;;;-146.67;32.07;74400.09;5063762;28;61916;-84
2023/05/28 02:55:45;;;;;;;;;0.00;0.00;;;;;-146.67;32.00;74410.06;5064030;28;61824;-84
2023/05/28 02:58:11;;;;;;;;;0.00;0.00;;;;;-146.67;32.14;74416.06;5045795;28;61969;-84
2023/05/28 03:00:36;;;;;;;;;0.00;0.00;;;;;-146.67;32.33;74440.00;5062517;28;61881;-84
2023/05/28 03:03:01;;;;;;;;;0.00;0.00;;;;;-146.67;32.58;74432.03;5052977;28;61716;-84
2023/05/28 03:05:27;;;;;;;;;0.00;0.00;;;;;-146.67;32.49;74440.00;5043517;28;62122;-83
2023/05/28 03:07:52;;;;;;;;;0.00;0.00;;;;;-146.67;32.66;74442.00;5026248;28;61785;-83
2023/05/28 03:10:18;;;;;;;;;0.00;0.00;;;;;-146.67;32.65;74450.00;5042874;28;61906;-82
2023/05/28 03:12:43;;;;;;;;;0.00;0.00;;;;;-146.67;32.61;74465.97;5025638;28;61934;-84
2023/05/28 03:15:09;;;;;;;;;0.00;0.00;;;;;-146.67;32.79;74469.97;5055318;28;61769;-84
2023/05/28 03:17:34;;;;;;;;;0.00;0.00;;;;;-146.67;32.76;74469.97;5063260;28;61721;-84
2023/05/28 03:19:59;;;;;;;;;0.00;0.00;;;;;-146.67;32.93;74463.97;5062978;28;63064;-83
2023/05/28 03:22:25;;;;;;;;;0.00;0.00;;;;;-146.67;32.74;74463.97;5045350;28;62217;-84
2023/05/28 03:24:50;;;;;;;;;0.00;0.00;;;;;-146.67;32.66;74475.94;5063539;28;61866;-84
2023/05/28 03:27:16;;;;;;;;;0.00;0.00;;;;;-146.67;32.89;74471.97;5044460;28;62181;-84
2023/05/28 03:29:41;;;;;;;;;0.00;0.00;;;;;-146.67;32.80;74471.97;5061474;28;62145;-84
2023/05/28 03:32:06;;;;;;;;;0.00;0.00;;;;;-146.67;32.87;74479.94;5060530;28;62159;-84
2023/05/28 03:34:33;;;;;;;;;0.00;0.00;;;;;-146.67;32.99;74501.91;5062171;28;62142;-84
2023/05/28 03:36:58;;;;;;;;;0.00;0.00;;;;;-146.67;33.15;74505.91;5044736;28;61930;-83
2023/05/28 03:39:24;;;;;;;;;0.00;0.00;;;;;-146.67;33.18;74511.88;5062515;28;62741;-84
2023/05/28 03:41:49;;;;;;;;;0.00;0.00;;;;;-146.67;33.28;74509.88;5063365;28;61939;-83
2023/05/28 03:44:17;;;;;;;;;0.00;0.00;;;;;-146.67;33.08;74507.91;5063260;28;61807;-83
2023/05/28 03:46:42;;;;;;;;;0.00;0.00;;;;;-146.67;33.35;74509.88;5045171;28;61768;-84
2023/05/28 03:49:08;;;;;;;;;17.25;12.00;;;;;-146.67;33.60;74515.88;5043677;28;63875;-84
2023/05/28 03:51:33;;;;;;;;;0.00;0.00;;;;;-146.67;33.63;74529.84;5044991;28;61768;-84
2023/05/28 03:53:58;;;;;;;;;0.00;0.00;;;;;-146.67;33.48;74539.84;5063267;28;61804;-84
2023/05/28 03:56:25;;;;;;;;;0.00;0.00;;;;;-146.67;33.68;74551.81;5037294;28;61890;-83
2023/05/28 03:58:50;;;;;;;;;0.00;0.00;;;;;-146.67;33.46;74571.78;5042367;28;62919;-83
2023/05/28 04:01:16;;;;;;;;;0.00;0.00;;;;;-146.67;33.86;74599.72;5062044;28;61923;-83
2023/05/28 04:03:42;;;;;;;;;0.00;0.00;;;;;-146.67;34.23;74625.69;5062830;28;61779;-83
2023/05/28 04:06:08;;;;;;;;;0.00;0.00;;;;;-146.67;34.37;74635.66;5063365;28;61780;-84
2023/05/28 04:08:33;;;;;;;;;13.00;12.00;;;;;-146.67;34.35;74629.69;5043813;28;64526;-84
2023/05/28 04:10:59;;;;;;;;;0.00;0.00;;;;;-146.67;34.21;74623.69;5061402;28;61830;-83
2023/05/28 04:13:24;;;;;;;;;0.00;0.00;;;;;-146.67;34.03;74607.72;5062963;28;61877;-83
2023/05/28 04:15:50;;;;;;;;;0.00;0.00;;;;;-146.67;33.90;74587.75;5062821;28;61834;-84
2023/05/28 04:18:15;;;;;;;;;0.00;0.00;;;;;-146.67;33.90;74595.75;5061725;28;62526;-84
2023/05/28 04:20:41;;;;;;;;;0.00;0.00;;;;;-146.67;33.90;74599.72;5062226;28;61982;-84
2023/05/28 04:23:07;;;;;;;;;0.00;0.00;;;;;-146.67;33.75;74597.75;5061733;28;61847;-83
2023/05/28 04:25:37;;;;;;;;;12.25;8.50;;;;;-146.67;34.24;74621.69;5062192;28;61975;-83
2023/05/28 04:28:04;;;;;;;;;0.00;0.00;;;;;-146.67;34.53;74635.66;5044177;28;63438;-84
2023/05/28 04:30:29;;;;;;;;;11.50;9.25;;;;;-146.67;34.54;74657.63;5044551;28;61973;-84
2023/05/28 04:32:56;;;;;;;;;0.00;0.00;;;;;-146.67;34.33;74667.63;5044429;28;61820;-84
2023/05/28 04:35:22;;;;;;;;;12.50;8.75;;;;;-146.67;34.70;74659.63;5044311;28;62398;-83
2023/05/28 04:37:50;;;;;;;;;16.50;14.25;;;;;-146.67;34.45;74651.66;5061267;28;62690;-83
2023/05/28 04:40:16;;;;;;;;;19.25;15.00;;;;;-146.67;34.49;74651.66;5061727;28;61885;-84
2023/05/28 04:42:42;;;;;;;;;0.00;0.00;;;;;-146.67;34.35;74647.66;5044222;28;62067;-83
2023/05/28 04:45:09;;;;;;;;;0.00;0.00;;;;;-146.67;34.03;74647.66;5062662;28;61808;-84
2023/05/28 04:47:36;;;;;;;;;11.50;11.25;;;;;-146.67;34.37;74657.63;5060619;28;63205;-84
2023/05/28 04:50:06;;;;;;;;;0.00;0.00;;;;;-146.67;34.42;74659.63;5061982;28;61836;-83
2023/05/28 04:52:32;;;;;;;;;0.00;0.00;;;;;-146.67;33.97;74661.63;5044361;28;61888;-84
2023/05/28 04:54:58;;;;;;;;;0.00;0.00;;;;;-146.67;33.18;74671.59;5043627;28;61861;-84
2023/05/28 04:57:23;;;;;;;;;0.00;0.00;;;;;-146.67;34.29;74677.59;5043342;28;64916;-84
2023/05/28 04:59:49;;;;;;;;;0.25;0.25;;;;;-146.67;33.88;74669.63;5061621;28;61882;-83
2023/05/28 05:02:16;;;;;;;;;0.00;0.00;;;;;-146.67;34.61;74675.59;5062290;28;61872;-84
2023/05/28 05:04:42;;;;;;;;;16.75;13.50;;;;;-146.67;34.65;74661.63;5062255;28;61906;-84
2023/05/28 05:07:07;;;;;;;;;0.00;0.00;;;;;-146.67;33.86;74645.66;5061417;28;62113;-84
2023/05/28 05:09:33;;;;;;;;;0.00;0.00;;;;;-146.67;34.41;74653.63;5061557;28;61942;-84
2023/05/28 05:11:58;;;;;;;;;0.00;0.00;;;;;-146.67;34.31;74643.66;5061793;28;62136;-84
2023/05/28 05:14:23;;;;;;;;;0.00;0.00;;;;;-146.67;34.04;74639.66;5062176;28;62010;-84
2023/05/28 05:16:49;;;;;;;;;13.25;12.00;;;;;-146.67;34.04;74643.66;5060612;28;62071;-83
2023/05/28 05:19:14;;;;;;;;;0.00;0.00;;;;;-146.67;33.75;74643.66;5043538;28;61710;-83
2023/05/28 05:21:40;;;;;;;;;16.25;14.50;;;;;-146.67;34.16;74633.69;5045677;28;61936;-84
2023/05/28 05:24:05;;;;;;;;;16.75;11.25;;;;;-146.67;33.84;74633.69;5064638;28;61753;-84
2023/05/28 05:26:31;;;;;;;;;0.00;0.00;;;;;-146.67;33.83;74611.72;5064604;28;61888;-84
2023/05/28 05:28:56;;;;;;;;;0.00;0.00;;;;;-146.67;33.75;74603.72;5047191;28;62065;-84
2023/05/28 05:31:21;;;;;;;;;16.50;15.00;;;;;-146.67;33.72;74609.72;5065440;28;62120;-84
2023/05/28 05:33:47;;;;;;;;;16.50;13.50;;;;;-146.67;33.76;74603.72;5065288;28;61728;-83
2023/05/28 05:36:12;;;;;;;;;11.50;8.75;;;;;-146.67;33.63;74603.72;5046333;28;63729;-83
2023/05/28 05:38:38;;;;;;;;;0.00;0.00;;;;;-146.67;33.17;74579.78;5064710;28;61918;-85
2023/05/28 05:41:03;;;;;;;;;17.00;13.00;;;;;-146.67;33.12;74557.81;5046394;28;62071;-84
2023/05/28 05:43:29;;;;;;;;;0.00;0.00;;;;;-146.67;32.84;74483.94;5065526;28;62102;-83
2023/05/28 05:45:54;;;;;;;;;0.00;0.00;;;;;-146.67;32.21;74414.06;5064806;28;62031;-84
2023/05/28 05:48:20;;;;;;;;;0.00;0.00;;;;;-146.67;31.83;74372.13;5064589;28;61788;-83
2023/05/28 05:50:55;;;;;;;;;0.00;0.00;;;;;-146.67;31.68;74370.16;5065063;28;61917;-84
2023/05/28 05:53:22;;;;;;;;;0.00;0.00;;;;;-146.67;31.42;74338.19;5064783;28;61935;-83
2023/05/28 05:55:48;;;;;;;;;0.00;0.00;;;;;-146.67;31.31;74328.22;5064167;28;63166;-83
2023/05/28 05:58:21;;;;;;;;;0.00;0.00;;;;;-146.67;31.14;74336.19;5063167;28;62133;-84
2023/05/28 06:00:52;;;;;;;;;0.00;0.00;;;;;-146.67;31.59;74372.13;5060002;28;61780;-84
2023/05/28 06:03:17;;;;;;;;;0.00;0.00;;;;;-146.67;31.35;74362.16;5065087;28;61914;-84
2023/05/28 06:05:42;;;;;;;;;0.00;0.00;;;;;-146.67;31.59;74354.16;5046130;28;63720;-84
2023/05/28 06:08:08;;;;;;;;;0.00;0.00;;;;;-146.67;31.38;74344.19;5046140;28;61789;-83
2023/05/28 06:10:34;;;;;;;;;0.00;0.00;;;;;-146.67;31.24;74324.22;5064576;28;61779;-83
2023/05/28 06:13:02;;;;;;;;;0.00;0.00;;;;;-146.67;31.19;74310.25;5065028;28;61974;-82
2023/05/28 06:15:28;;;;;;;;;0.00;0.00;;;;;-146.67;31.20;74282.31;5045681;28;64685;-82
2023/05/28 06:17:55;;;;;;;;;0.00;0.00;;;;;-146.67;30.78;74202.44;5042905;28;61864;-83
2023/05/28 06:20:20;;;;;;;;;0.00;0.00;;;;;-146.67;29.58;74032.75;5042607;28;61888;-83
2023/05/28 06:22:46;;;;;;;;;0.00;0.00;;;;;-146.67;28.71;74004.81;5052216;28;61933;-83
2023/05/28 06:25:11;;;;;;;;;0.00;0.00;;;;;-146.67;28.97;74018.78;5063811;28;61838;-84
2023/05/28 06:27:37;;;;;;;;;0.00;0.00;;;;;-146.67;28.99;74002.81;5064141;28;62395;-83
2023/05/28 06:30:03;;;;;;;;;0.00;0.00;;;;;-146.67;28.99;74054.72;5046308;28;62145;-84
2023/05/28 06:32:30;;;;;;;;;0.00;0.00;;;;;-146.67;29.00;74036.75;5045565;28;61907;-83
2023/05/28 06:34:55;;;;;;;;;0.00;0.00;;;;;-146.67;28.92;73992.84;5045670;28;63555;-83
2023/05/28 06:37:21;;;;;;;;;0.00;0.00;;;;;-146.67;28.67;74030.78;5045848;28;61935;-83
2023/05/28 06:39:46;;;;;;;;;0.00;0.00;;;;;-146.67;29.13;74054.72;5064202;28;61907;-82
2023/05/28 06:42:12;;;;;;;;;0.00;0.00;;;;;-146.67;29.10;74074.69;5050206;28;62038;-83
2023/05/28 06:44:37;;;;;;;;;0.00;0.00;;;;;-146.67;29.57;74110.63;5049686;28;62001;-83
2023/05/28 06:47:03;;;;;;;;;0.00;0.00;;;;;-146.67;29.67;74128.59;5063783;28;61673;-84
2023/05/28 06:49:28;;;;;;;;;0.00;0.00;;;;;-146.67;29.88;74126.59;5045718;28;61991;-84
2023/05/28 06:51:53;;;;;;;;;0.00;0.00;;;;;-146.67;29.69;74156.53;5046085;28;62103;-83
2023/05/28 06:54:19;;;;;;;;;0.00;0.00;;;;;-146.67;29.73;74176.50;5063474;28;61896;-84
2023/05/28 06:56:45;;;;;;;;;0.00;0.00;;;;;-146.67;30.23;74186.47;5045491;28;62179;-83
2023/05/28 06:59:10;;;;;;;;;0.00;0.00;;;;;-146.67;30.34;74180.50;5046017;28;61904;-83
2023/05/28 07:01:36;;;;;;;;;0.00;0.00;;;;;-146.67;30.20;74196.47;5062339;28;62302;-84
2023/05/28 07:04:01;;;;;;;;;0.00;0.00;;;;;-146.67;30.15;74212.44;5025215;28;63873;-86
2023/05/28 07:06:27;;;;;;;;;0.00;0.00;;;;;-146.67;30.34;74188.47;5043382;28;61725;-85
2023/05/28 07:08:52;;;;;;;;;0.00;0.00;;;;;-146.67;30.14;74170.50;5043976;28;61762;-84
2023/05/28 07:11:18;;;;;;;;;0.00;0.00;;;;;-146.67;29.55;74178.50;5025654;28;62001;-82
2023/05/28 07:13:44;;;;;;;;;0.00;0.00;;;;;-146.67;29.74;74196.47;5042710;28;61995;-82
2023/05/28 07:16:10;;;;;;;;;0.00;0.00;;;;;-146.67;30.04;74190.47;5025746;28;61904;-83
2023/05/28 07:18:36;;;;;;;;;0.00;0.00;;;;;-146.67;30.05;74198.47;5042860;28;61954;-82
2023/05/28 07:21:02;;;;;;;;;0.00;0.00;;;;;-146.67;30.12;74208.44;5043416;28;61816;-82
2023/05/28 07:23:28;;;;;;;;;0.00;0.00;;;;;-146.67;30.40;74202.44;5045284;28;61816;-82
2023/05/28 07:25:53;;;;;;;;;0.00;0.00;;;;;-146.67;29.76;74182.50;5063414;28;61950;-83
2023/05/28 07:28:18;;;;;;;;;0.00;0.00;;;;;-146.67;29.90;74176.50;5045595;28;61792;-82
2023/05/28 07:30:44;;;;;;;;;0.00;0.00;;;;;-146.67;29.94;74134.56;5063521;28;62014;-83
2023/05/28 07:33:09;;;;;;;;;0.00;0.00;;;;;-146.67;29.72;74138.56;5063073;28;62981;-85
2023/05/28 07:35:35;;;;;;;;;0.00;0.00;;;;;-146.67;29.61;74128.59;5045223;28;61986;-87
2023/05/28 07:38:10;;;;;;;;;0.00;0.00;;;;;-146.67;29.43;74118.59;5054403;28;61925;-85
2023/05/28 07:40:37;;;;;;;;;0.00;0.00;;;;;-146.67;29.19;74122.59;5034270;28;62017;-87
2023/05/28 07:43:03;;;;;;;;;0.00;0.00;;;;;-146.67;29.18;74142.56;5029098;28;63951;-87
2023/05/28 07:45:30;;;;;;;;;0.00;0.00;;;;;-146.67;29.75;74146.56;5050333;28;61796;-87
2023/05/28 07:47:56;;;;;;;;;0.00;0.00;;;;;-146.67;29.20;74136.56;5062892;28;62167;-87
2023/05/28 07:50:23;;;;;;;;;0.00;0.00;;;;;-146.67;29.20;74124.59;5062783;28;62078;-84
2023/05/28 07:52:52;;;;;;;;;0.00;0.00;;;;;-146.67;29.52;74124.59;5044062;28;64235;-85
2023/05/28 07:55:19;;;;;;;;;0.00;0.00;;;;;-146.67;29.12;74110.63;5041309;28;62077;-82
2023/05/28 07:57:47;;;;;;;;;0.00;0.00;;;;;-146.67;29.21;74102.63;5040994;28;61921;-82
2023/05/28 08:00:15;;;;;;;;;0.00;0.00;;;;;-146.67;29.18;74098.66;5035726;28;61776;-83
2023/05/28 08:02:46;;;;;;;;;0.00;0.00;;;;;-146.67;29.49;74106.63;5042429;28;64187;-84
2023/05/28 08:05:12;;;;;;;;;0.00;0.00;;;;;-146.67;29.29;74120.59;5062214;28;61796;-83
2023/05/28 08:07:41;;;;;;;;;0.00;0.00;;;;;-146.67;29.53;74112.63;5061027;28;61928;-83
2023/05/28 08:10:07;;;;;;;;;0.00;0.00;;;;;-146.67;29.34;74098.66;5062862;28;61838;-84
2023/05/28 08:12:32;;;;;;;;;0.00;0.00;;;;;-146.67;28.98;74084.66;5059754;28;61963;-84
2023/05/28 08:14:57;;;;;;;;;0.00;0.00;;;;;-146.67;29.04;74080.69;5062378;28;61759;-84
2023/05/28 08:17:31;;;;;;;;;0.00;0.00;;;;;-146.67;29.09;74068.69;5058144;28;62488;-84
2023/05/28 08:19:58;;;;;;;;;0.00;0.00;;;;;-146.67;28.89;74054.72;5023550;28;62168;-84
2023/05/28 08:22:25;;;;;;;;;0.00;0.00;;;;;-146.67;29.26;74054.72;5029304;28;62710;-84
2023/05/28 08:24:55;;;;;;;;;0.00;0.00;;;;;-146.67;29.39;74050.72;5042378;28;62173;-82
2023/05/28 08:27:20;;;;;;;;;0.00;0.00;;;;;-146.67;28.68;74042.75;5041691;28;61858;-83
2023/05/28 08:29:46;;;;;;;;;0.00;0.00;;;;;-146.67;28.88;74060.72;5042623;28;61947;-83
2023/05/28 08:32:13;;;;;;;;;0.00;0.00;;;;;-146.67;28.95;74042.75;5031399;28;63390;-82
2023/05/28 08:34:39;;;;;;;;;0.00;0.00;;;;;-146.67;29.06;74024.78;5040894;28;61881;-81
2023/05/28 08:37:07;;;;;;;;;0.00;0.00;;;;;-146.67;28.53;74014.81;5042456;28;61732;-82
2023/05/28 08:39:36;;;;;;;;;0.00;0.00;;;;;-146.67;28.56;74008.81;5026607;28;62141;-83
2023/05/28 08:42:01;;;;;;;;;0.00;0.00;;;;;-146.67;28.70;74002.81;5041365;28;61907;-82
2023/05/28 08:44:29;;;;;;;;;0.00;0.00;;;;;-146.67;28.45;73992.84;5040736;28;62115;-85
2023/05/28 08:46:56;;;;;;;;;0.00;0.00;;;;;-146.67;28.91;73992.84;5040347;28;61909;-84
2023/05/28 08:49:51;;;;;;;;;0.00;0.00;;;;;-146.67;28.60;73988.84;5041947;28;61788;-85
2023/05/28 08:52:24;;;;;;;;;0.00;0.00;;;;;-146.67;28.28;73980.88;5041211;28;61910;-83
2023/05/28 08:54:50;;;;;;;;;0.00;0.00;;;;;-146.67;28.38;73970.88;5041804;28;61784;-86
2023/05/28 08:57:17;;;;;;;;;0.00;0.00;;;;;-146.67;28.45;73970.88;5040161;28;62388;-83
2023/05/28 08:59:46;;;;;;;;;0.00;0.00;;;;;-146.67;28.39;73962.91;5039668;28;62442;-91
2023/05/28 09:02:15;;;;;;;;;0.00;0.00;;;;;-146.67;28.24;73958.91;5041046;28;61895;-83
2023/05/28 09:04:45;;;;;;;;;0.00;0.00;;;;;-146.67;28.66;73948.94;5041634;28;61838;-84
2023/05/28 09:07:14;;;;;;;;;0.00;0.00;;;;;-146.67;28.31;73944.94;5042153;28;61955;-82
2023/05/28 09:09:40;;;;;;;;;0.00;0.00;;;;;-146.67;27.94;73934.94;5037899;28;62035;-88
2023/05/28 09:12:22;;;;;;;;;0.00;0.00;;;;;-146.67;28.20;73926.97;5021316;28;63038;-87
2023/05/28 09:14:58;;;;;;;;;0.00;0.00;;;;;-146.67;28.38;73915.00;5032681;28;61984;-83
2023/05/28 09:17:45;;;;;;;;;0.00;0.00;;;;;-146.67;28.81;73905.00;5045856;28;61847;-85
2023/05/28 09:20:13;;;;;;;;;0.00;0.00;;;;;-146.67;28.42;73901.03;5026452;28;61955;-84
2023/05/28 09:22:38;;;;;;;;;0.00;0.00;;;;;-146.67;28.18;73903.00;5032844;28;64594;-86
2023/05/28 09:25:11;;;;;;;;;1.67;1.67;;;;;-146.67;27.90;73897.03;5039593;28;61887;-83
2023/05/28 09:27:46;;;;;;;;;0.00;0.00;;;;;-146.67;28.53;73891.03;5037634;28;62315;-86
2023/05/28 09:30:13;;;;;;;;;0.00;0.00;;;;;-146.67;28.28;73883.06;5040118;28;61827;-84
2023/05/28 09:32:40;;;;;;;;;0.00;0.00;;;;;-146.67;28.18;73869.09;5025586;28;64555;-86
2023/05/28 09:35:08;;;;;;;;;0.00;0.00;;;;;-146.67;27.83;73865.09;5022004;28;62075;-79
2023/05/28 09:37:40;;;;;;;;;0.00;0.00;;;;;-146.67;27.99;73851.13;5026237;28;62194;-85
2023/05/28 09:40:09;;;;;;;;;0.00;0.00;;;;;-146.67;27.84;73849.13;5037245;28;61859;-82
2023/05/28 09:42:41;;;;;;;;;0.00;0.00;;;;;-146.67;28.04;73839.13;5032168;28;61937;-87
2023/05/28 09:45:21;;;;;;;;;0.00;0.00;;;;;-146.67;27.77;73823.16;5039487;28;62201;-85
2023/05/28 09:47:47;;;;;;;;;0.00;0.00;;;;;-146.67;28.13;73809.19;5020418;28;61765;-86
2023/05/28 09:50:15;;;;;;;;;0.00;0.00;;;;;-146.67;27.88;73797.22;5039448;28;62503;-87
2023/05/28 09:52:44;;;;;;;;;0.00;0.00;;;;;-146.67;27.84;73781.25;5039685;28;63011;-83
2023/05/28 09:55:20;;;;;;;;;0.00;0.00;;;;;-146.67;27.85;73787.25;5038917;28;62058;-87
2023/05/28 09:58:05;;;;;;;;;0.00;0.00;;;;;-146.67;27.80;73769.28;5030385;28;62201;-86
2023/05/28 10:00:55;;;;;;;;;0.00;0.00;;;;;-146.67;27.47;73759.28;5039004;28;62177;-86
2023/05/28 10:03:26;;;;;;;;;0.00;0.00;;;;;-146.67;27.70;73749.31;5035204;28;61923;-86
2023/05/28 10:06:02;;;;;;;;;0.00;0.00;;;;;-146.67;27.30;73741.34;5035474;28;61960;-85
2023/05/28 10:08:37;;;;;;;;;0.00;0.00;;;;;-146.67;27.28;73725.38;5033150;28;61927;-85
2023/05/28 10:11:08;;;;;;;;;0.00;0.00;;;;;-146.67;27.59;73713.38;5041627;28;62417;-86
2023/05/28 10:13:35;;;;;;;;;0.33;0.33;;;;;-146.67;27.49;73705.41;5036341;28;63925;-86
2023/05/28 10:16:01;;;;;;;;;0.00;0.00;;;;;-146.67;27.30;73697.41;5043020;28;61906;-85
2023/05/28 10:18:27;;;;;;;;;0.00;0.00;;;;;-146.67;27.14;73695.41;5043645;28;61781;-81
2023/05/28 10:20:53;;;;;;;;;0.00;0.00;;;;;-146.67;27.10;73687.44;5041619;28;62000;-83
2023/05/28 10:23:20;;;;;;;;;0.00;0.00;;;;;-146.67;27.26;73669.47;5039978;28;62859;-84
2023/05/28 10:25:47;;;;;;;;;0.00;0.00;;;;;-146.67;26.66;73663.47;5042185;28;61947;-83
2023/05/28 10:28:16;;;;;;;;;0.00;0.00;;;;;-146.67;26.48;73647.50;5036186;28;62261;-83
2023/05/28 10:30:42;;;;;;;;;0.00;0.00;;;;;-146.67;26.64;73639.53;5041787;28;61827;-83
2023/05/28 10:33:10;;;;;;;;;0.00;0.00;;;;;-146.67;26.82;73625.56;5042924;28;61982;-87
2023/05/28 10:35:51;;;;;;;;;0.00;0.00;;;;;-146.67;27.02;73613.59;5029346;28;62110;-87
2023/05/28 10:38:16;;;;;;;;;0.00;0.00;;;;;-146.67;26.48;73603.59;5043241;28;61917;-87
2023/05/28 10:40:42;;;;;;;;;0.00;0.00;;;;;-146.67;26.64;73597.63;5038861;28;61848;-85
2023/05/28 10:43:44;;;;;;;;;0.00;0.00;;;;;-146.67;26.36;73577.66;5036274;28;63493;-87
2023/05/28 10:46:15;;;;;;;;;0.00;0.00;;;;;-146.67;26.25;73563.69;5039968;28;61800;-87
2023/05/28 10:49:28;;;;;;;;;0.00;0.00;;;;;-146.67;26.29;73541.72;5038868;28;62116;-87
2023/05/28 10:52:04;;;;;;;;;0.00;0.00;;;;;-146.67;26.10;73531.75;5027923;28;62087;-85
2023/05/28 10:54:31;;;;;;;;;0.00;0.00;;;;;-146.67;25.71;73531.75;5037867;28;62144;-86
2023/05/28 10:57:11;;;;;;;;;0.00;0.00;;;;;-146.67;26.09;73507.78;5037336;28;61992;-86
2023/05/28 10:59:46;;;;;;;;;0.00;0.00;;;;;-146.67;26.05;73495.81;5043579;28;62022;-87
2023/05/28 11:02:22;;;;;;;;;0.00;0.00;;;;;-146.67;25.74;73485.84;5033776;28;61978;-84
2023/05/28 11:05:03;;;;;;;;;0.00;0.00;;;;;-146.67;26.15;73465.88;5038755;28;62265;-85
2023/05/28 11:07:38;;;;;;;;;0.00;0.00;;;;;-146.67;25.68;73451.91;5030536;28;61956;-86
2023/05/28 11:10:12;;;;;;;;;0.00;0.00;;;;;-146.67;25.90;73435.94;5042057;28;61827;-81
2023/05/28 11:12:45;;;;;;;;;0.00;0.00;;;;;-146.67;25.76;73415.97;5043267;28;62049;-80
2023/05/28 11:15:12;;;;;;;;;0.00;0.00;;;;;-146.67;25.26;73398.03;5042334;28;61919;-82
2023/05/28 11:17:43;;;;;;;;;0.00;0.00;;;;;-146.67;25.15;73376.06;5042356;28;62095;-83